Terminal Aerodrome Forecast
Issued by NWS Bismarck, ND

Home | Current Version | Previous Version | Text Only | Print | Product List | Glossary Off
Versions: 1 2 3 4 5 6 7 8 9 10 11 12 13 14 15 16 17 18 19 20 21 22 23 24 25

000
FTUS43 KBIS 012330
TAFISN
TAF
KISN 012330Z 0200/0224 32006KT 5SM FU VCTS SCT060CB
     FM020500 VRB05KT 4SM FU VCSH BKN080
     FM021200 26006KT 6SM FU BKN080
     FM021900 33010KT P6SM BKN060=

USA.gov is the U.S. government's official web portal to all federal, state and local government web resources and services.